createdAt,value
2023-02-24T00:00:32.771Z,-0.64
2023-02-24T00:15:22.762Z,-0.72
2023-02-24T00:17:51.926Z,-0.44
2023-02-24T00:20:20.300Z,-0.30
2023-02-24T00:22:50.515Z,-0.26
2023-02-24T00:25:19.670Z,-0.28
2023-02-24T00:27:51.187Z,-0.29
2023-02-24T00:30:21.688Z,-0.32
2023-02-24T00:32:54.490Z,-0.33
2023-02-24T00:35:22.933Z,-0.33
2023-02-24T00:37:51.617Z,-0.34
2023-02-24T00:40:23.923Z,-0.35
2023-02-24T00:42:54.936Z,-0.34
2023-02-24T00:45:23.530Z,-0.34
2023-02-24T00:47:57.782Z,-0.32
2023-02-24T00:50:26.178Z,-0.31
2023-02-24T00:52:54.308Z,-0.30
2023-02-24T00:55:23.579Z,-0.31
2023-02-24T00:57:51.892Z,-0.32
2023-02-24T01:00:20.398Z,-0.32
2023-02-24T01:02:49.804Z,-0.31
2023-02-24T01:05:20.309Z,-0.29
2023-02-24T01:07:48.886Z,-0.28
2023-02-24T01:10:18.610Z,-0.26
2023-02-24T01:12:51.283Z,-0.24
2023-02-24T01:15:20.966Z,-0.22
2023-02-24T01:17:50.035Z,-0.19
2023-02-24T01:20:19.280Z,-0.18
2023-02-24T01:22:53.248Z,-0.17
2023-02-24T01:25:22.737Z,-0.16
2023-02-24T01:27:50.964Z,-0.15
2023-02-24T01:30:20.909Z,-0.14
2023-02-24T01:32:51.373Z,-0.12
2023-02-24T01:35:23.589Z,-0.10
2023-02-24T01:37:53.547Z,-0.08
2023-02-24T01:40:22.053Z,-0.07
2023-02-24T01:42:52.356Z,-0.05
2023-02-24T01:45:23.148Z,-0.05
2023-02-24T01:47:52.724Z,-0.04
2023-02-24T01:50:21.944Z,-0.03
2023-02-24T01:52:52.196Z,-0.01
2023-02-24T01:55:29.364Z,0.01
2023-02-24T01:57:59.158Z,0.03
2023-02-24T02:00:47.936Z,0.06
2023-02-24T02:03:33.993Z,0.07
2023-02-24T02:06:08.025Z,0.08
2023-02-24T02:08:37.578Z,0.07
2023-02-24T02:11:08.949Z,0.08
2023-02-24T02:13:43.456Z,0.08
2023-02-24T02:16:18.159Z,0.08
2023-02-24T02:18:56.475Z,0.10
2023-02-24T02:22:02.622Z,0.11
2023-02-24T02:24:58.929Z,0.13
2023-02-24T02:28:07.139Z,0.15
2023-02-24T02:30:51.169Z,0.15
2023-02-24T02:33:39.750Z,0.17
2023-02-24T02:36:22.691Z,0.17
2023-02-24T02:39:03.418Z,0.19
2023-02-24T02:41:36.689Z,0.21
2023-02-24T02:44:34.682Z,0.23
2023-02-24T02:47:30.489Z,0.29
2023-02-24T02:50:21.614Z,0.36
2023-02-24T02:53:04.187Z,0.44
2023-02-24T02:55:36.398Z,0.50
2023-02-24T02:58:09.450Z,0.55
2023-02-24T03:00:50.308Z,0.61
2023-02-24T03:03:20.317Z,0.67
2023-02-24T03:05:57.645Z,0.72
2023-02-24T03:08:29.765Z,0.76
2023-02-24T03:11:00.630Z,0.78
2023-02-24T03:13:32.216Z,0.77
2023-02-24T03:16:00.925Z,0.77
2023-02-24T03:18:32.529Z,0.78
2023-02-24T03:21:13.156Z,0.82
2023-02-24T03:23:49.885Z,0.86
2023-02-24T03:26:50.252Z,0.89
2023-02-24T03:29:30.765Z,0.92
2023-02-24T03:32:18.698Z,0.95
2023-02-24T03:34:50.686Z,0.96
2023-02-24T03:37:26.039Z,0.95
2023-02-24T03:39:55.204Z,0.96
2023-02-24T03:42:23.959Z,0.97
2023-02-24T03:44:52.725Z,1.00
2023-02-24T03:47:21.365Z,1.03
2023-02-24T03:49:50.519Z,1.05
2023-02-24T03:52:47.525Z,1.20
2023-02-24T03:55:22.416Z,1.28
2023-02-24T03:58:10.504Z,1.31
2023-02-24T04:01:05.923Z,1.32
2023-02-24T04:04:13.093Z,1.34
2023-02-24T04:07:06.476Z,1.37
2023-02-24T04:10:12.992Z,1.38
2023-02-24T04:13:07.187Z,1.40
2023-02-24T04:15:40.005Z,1.44
2023-02-24T04:18:21.762Z,1.46
2023-02-24T04:20:53.587Z,1.48
2023-02-24T04:23:27.855Z,1.50
2023-02-24T04:26:00.894Z,1.52
2023-02-24T04:28:30.135Z,1.56
2023-02-24T04:31:06.117Z,1.59
2023-02-24T04:33:35.863Z,1.61
2023-02-24T04:36:05.294Z,1.56
2023-02-24T04:38:36.762Z,1.45
2023-02-24T04:41:07.192Z,1.46
2023-02-24T04:43:36.349Z,1.48
2023-02-24T04:46:08.251Z,1.50
2023-02-24T04:48:36.633Z,1.49
2023-02-24T04:51:07.279Z,1.50
2023-02-24T04:53:36.834Z,1.50
2023-02-24T04:56:12.399Z,1.51
2023-02-24T04:58:42.947Z,1.51
2023-02-24T05:01:11.461Z,1.49
2023-02-24T05:03:44.554Z,1.50
2023-02-24T05:06:16.861Z,1.50
2023-02-24T05:08:45.185Z,1.49
2023-02-24T05:11:17.044Z,1.51
2023-02-24T05:13:47.299Z,1.54
2023-02-24T05:16:18.137Z,1.58
2023-02-24T05:18:49.783Z,1.59
2023-02-24T05:21:36.621Z,1.60
2023-02-24T05:24:08.247Z,1.62
2023-02-24T05:26:43.933Z,1.63
2023-02-24T05:29:15.249Z,1.65
2023-02-24T05:31:44.635Z,1.66
2023-02-24T05:34:17.704Z,1.70
2023-02-24T05:36:46.669Z,1.74
2023-02-24T05:39:19.513Z,1.78
2023-02-24T05:41:49.260Z,1.81
2023-02-24T05:44:23.106Z,1.84
2023-02-24T05:46:56.969Z,1.85
2023-02-24T05:49:29.516Z,1.88
2023-02-24T05:52:01.036Z,1.91
2023-02-24T05:54:34.255Z,1.94
2023-02-24T05:57:05.308Z,1.96
2023-02-24T05:59:33.713Z,1.99
2023-02-24T06:02:07.855Z,2.00
2023-02-24T06:04:40.942Z,2.03
2023-02-24T06:07:14.731Z,2.07
2023-02-24T06:09:45.359Z,2.12
2023-02-24T06:12:16.679Z,2.14
2023-02-24T06:14:47.654Z,2.17
2023-02-24T06:17:19.265Z,2.20
2023-02-24T06:19:50.252Z,2.25
2023-02-24T06:22:23.540Z,2.30
2023-02-24T06:24:54.360Z,2.34
2023-02-24T06:27:25.478Z,2.36
2023-02-24T06:29:59.014Z,2.39
2023-02-24T06:32:31.540Z,2.40
2023-02-24T06:35:00.744Z,2.43
2023-02-24T06:37:30.284Z,2.47
2023-02-24T06:39:58.957Z,2.52
2023-02-24T06:42:28.064Z,2.56
2023-02-24T06:44:56.633Z,2.58
2023-02-24T06:47:24.955Z,2.60
2023-02-24T06:49:53.782Z,2.62
2023-02-24T06:52:22.047Z,2.65
2023-02-24T06:54:52.589Z,2.69
2023-02-24T06:57:21.090Z,2.74
2023-02-24T06:59:49.577Z,2.78
2023-02-24T07:02:18.062Z,2.81
2023-02-24T07:04:47.849Z,2.85
2023-02-24T07:07:17.769Z,2.90
2023-02-24T07:09:49.321Z,2.93
2023-02-24T07:12:21.233Z,2.96
2023-02-24T07:14:50.680Z,2.99
2023-02-24T07:17:24.017Z,3.02
2023-02-24T07:19:54.778Z,3.07
2023-02-24T07:22:25.513Z,3.08
2023-02-24T07:25:00.826Z,3.11
2023-02-24T07:27:30.796Z,3.15
2023-02-24T07:29:59.480Z,3.20
2023-02-24T07:32:28.549Z,3.25
2023-02-24T07:34:56.852Z,3.30
2023-02-24T07:37:25.112Z,3.36
2023-02-24T07:39:53.468Z,3.42
2023-02-24T07:42:22.732Z,3.45
2023-02-24T07:44:57.655Z,3.49
2023-02-24T07:47:26.748Z,3.54
2023-02-24T07:49:55.620Z,3.58
2023-02-24T07:52:23.838Z,3.56
2023-02-24T07:54:52.080Z,3.56
2023-02-24T08:10:37.061Z,3.87
2023-02-24T08:13:12.254Z,4.16
2023-02-24T08:15:40.785Z,4.13
2023-02-24T08:35:36.085Z,4.33
2023-02-24T08:38:07.850Z,4.64
2023-02-24T08:40:40.071Z,4.63
2023-02-24T08:56:09.893Z,4.59
2023-02-24T08:58:47.739Z,4.84
2023-02-24T09:01:24.811Z,4.80
2023-02-24T09:03:58.822Z,4.76
2023-02-24T09:06:38.042Z,4.70
2023-02-24T09:09:17.872Z,4.69
2023-02-24T09:11:59.053Z,4.65
2023-02-24T09:14:29.577Z,4.64
2023-02-24T09:17:11.823Z,4.62
2023-02-24T09:32:19.162Z,4.81
2023-02-24T09:34:47.894Z,5.05
2023-02-24T09:37:25.236Z,5.02
2023-02-24T09:39:57.262Z,5.02
2023-02-24T09:42:29.656Z,5.02
2023-02-24T09:45:11.635Z,5.03
2023-02-24T10:01:48.057Z,5.03
2023-02-24T10:04:23.234Z,5.27
2023-02-24T10:06:58.602Z,5.24
2023-02-24T10:09:34.731Z,5.19
2023-02-24T10:12:17.612Z,5.17
2023-02-24T10:15:32.486Z,5.21
2023-02-24T10:30:20.162Z,5.55
2023-02-24T10:33:00.753Z,5.71
2023-02-24T10:35:34.167Z,5.59
2023-02-24T10:38:06.343Z,5.50
2023-02-24T10:40:56.998Z,5.41
2023-02-24T10:43:33.961Z,5.41
2023-02-24T10:46:17.666Z,5.46
2023-02-24T10:49:05.110Z,5.48
2023-02-24T10:51:42.071Z,5.48
2023-02-24T10:54:45.274Z,5.46
2023-02-24T10:57:58.146Z,5.43
2023-02-24T11:00:57.593Z,5.46
2023-02-24T11:03:36.432Z,5.50
2023-02-24T11:06:06.143Z,5.53
2023-02-24T11:08:48.859Z,5.51
2023-02-24T11:11:29.992Z,5.44
2023-02-24T11:14:18.753Z,5.39
2023-02-24T11:17:14.517Z,5.39
2023-02-24T11:19:55.191Z,5.44
2023-02-24T11:22:32.300Z,5.41
2023-02-24T11:25:07.106Z,5.40
2023-02-24T11:27:35.487Z,5.42
2023-02-24T11:30:26.588Z,5.47
2023-02-24T11:33:09.446Z,5.52
2023-02-24T11:36:03.203Z,5.62
2023-02-24T11:38:45.914Z,5.69
2023-02-24T11:41:20.785Z,5.71
2023-02-24T11:44:02.960Z,5.72
2023-02-24T11:46:52.972Z,5.75
2023-02-24T11:50:04.833Z,5.75
2023-02-24T11:52:54.551Z,5.72
2023-02-24T11:56:32.538Z,5.71
2023-02-24T11:59:16.695Z,5.69
2023-02-24T12:01:56.032Z,5.66
2023-02-24T12:04:43.560Z,5.65
2023-02-24T12:07:21.163Z,5.63
2023-02-24T12:10:15.642Z,5.64
2023-02-24T12:13:14.762Z,5.61
2023-02-24T12:15:47.146Z,5.60
2023-02-24T12:18:30.766Z,5.59
2023-02-24T12:21:05.917Z,5.59
2023-02-24T12:23:35.006Z,5.62
2023-02-24T12:26:16.083Z,5.65
2023-02-24T12:29:10.984Z,5.67
2023-02-24T12:31:43.880Z,5.67
2023-02-24T12:34:24.128Z,5.66
2023-02-24T12:36:59.887Z,5.63
2023-02-24T12:39:54.781Z,5.61
2023-02-24T12:42:36.171Z,5.63
2023-02-24T12:45:38.473Z,5.67
2023-02-24T12:48:29.067Z,5.75
2023-02-24T12:51:00.401Z,5.83
2023-02-24T12:54:05.645Z,5.87
2023-02-24T12:57:11.121Z,5.91
2023-02-24T12:59:44.267Z,5.92
2023-02-24T13:02:13.548Z,5.92
2023-02-24T13:05:03.932Z,5.94
2023-02-24T13:07:53.700Z,6.04
2023-02-24T13:10:28.576Z,6.12
2023-02-24T13:13:15.930Z,6.19
2023-02-24T13:15:58.376Z,6.28
2023-02-24T13:18:32.164Z,6.33
2023-02-24T13:21:20.575Z,6.37
2023-02-24T13:24:20.571Z,6.43
2023-02-24T13:26:49.116Z,6.41
2023-02-24T13:29:17.804Z,6.39
2023-02-24T13:31:51.443Z,6.39
2023-02-24T13:34:43.310Z,6.40
2023-02-24T13:37:12.331Z,6.39
2023-02-24T13:39:47.412Z,6.35
2023-02-24T13:42:24.866Z,6.30
2023-02-24T13:45:10.155Z,6.26
2023-02-24T13:47:50.001Z,6.26
2023-02-24T13:50:38.348Z,6.28
2023-02-24T13:53:29.977Z,6.28
2023-02-24T13:56:30.813Z,6.30
2023-02-24T13:59:05.859Z,6.33
2023-02-24T14:02:08.255Z,6.32
2023-02-24T14:04:37.221Z,6.32
2023-02-24T14:07:10.056Z,6.33
2023-02-24T14:09:51.399Z,6.36
2023-02-24T14:12:22.035Z,6.38
2023-02-24T14:14:50.921Z,6.38
2023-02-24T14:17:32.204Z,6.38
2023-02-24T14:20:17.284Z,6.37
2023-02-24T14:22:53.487Z,6.35
2023-02-24T14:25:23.019Z,6.34
2023-02-24T14:28:01.879Z,6.32
2023-02-24T14:30:36.154Z,6.30
2023-02-24T14:33:07.493Z,6.25
2023-02-24T14:35:43.183Z,6.23
2023-02-24T14:38:39.677Z,6.20
2023-02-24T14:41:27.453Z,6.15
2023-02-24T14:44:30.142Z,6.09
2023-02-24T14:47:15.786Z,6.03
2023-02-24T14:50:07.495Z,6.00
2023-02-24T14:52:45.815Z,5.98
2023-02-24T14:55:28.260Z,5.96
2023-02-24T14:58:34.682Z,5.94
2023-02-24T15:01:28.902Z,5.94
2023-02-24T15:04:45.421Z,5.95
2023-02-24T15:07:22.230Z,5.96
2023-02-24T15:09:50.937Z,5.97
2023-02-24T15:12:19.420Z,5.98
2023-02-24T15:14:57.750Z,5.98
2023-02-24T15:17:26.427Z,5.99
2023-02-24T15:19:55.314Z,6.01
2023-02-24T15:22:33.322Z,6.02
2023-02-24T15:25:22.361Z,6.01
2023-02-24T15:27:55.479Z,5.99
2023-02-24T15:30:24.982Z,5.99
2023-02-24T15:33:05.144Z,5.97
2023-02-24T15:35:35.012Z,5.96
2023-02-24T15:38:19.519Z,5.94
2023-02-24T15:40:58.559Z,5.93
2023-02-24T15:43:37.305Z,5.92
2023-02-24T15:46:27.227Z,5.92
2023-02-24T15:49:02.022Z,5.92
2023-02-24T15:51:47.469Z,5.92
2023-02-24T15:54:21.175Z,5.93
2023-02-24T15:56:49.558Z,5.94
2023-02-24T15:59:18.524Z,5.96
2023-02-24T16:01:46.840Z,5.96
2023-02-24T16:04:15.081Z,5.96
2023-02-24T16:06:54.749Z,5.95
2023-02-24T16:09:38.908Z,5.93
2023-02-24T16:12:15.647Z,5.91
2023-02-24T16:14:44.377Z,5.92
2023-02-24T16:17:41.533Z,5.92
2023-02-24T16:20:18.413Z,5.94
2023-02-24T16:22:47.099Z,5.93
2023-02-24T16:25:17.508Z,5.93
2023-02-24T16:27:58.374Z,5.92
2023-02-24T16:30:44.140Z,5.93
2023-02-24T16:33:29.422Z,5.96
2023-02-24T16:36:15.320Z,6.00
2023-02-24T16:39:08.012Z,6.01
2023-02-24T16:41:59.562Z,6.00
2023-02-24T16:44:48.619Z,5.97
2023-02-24T16:48:12.481Z,5.92
2023-02-24T16:50:42.623Z,5.90
2023-02-24T16:53:16.861Z,5.88
2023-02-24T16:55:45.542Z,5.88
2023-02-24T16:58:14.301Z,5.87
2023-02-24T17:00:44.629Z,5.85
2023-02-24T17:03:19.664Z,5.82
2023-02-24T17:05:49.895Z,5.79
2023-02-24T17:08:18.990Z,5.75
2023-02-24T17:10:47.783Z,5.71
2023-02-24T17:13:19.856Z,5.68
2023-02-24T17:15:55.511Z,5.66
2023-02-24T17:18:24.820Z,5.63
2023-02-24T17:20:53.520Z,5.62
2023-02-24T17:23:22.792Z,5.61
2023-02-24T17:25:53.588Z,5.61
2023-02-24T17:28:22.116Z,5.61
2023-02-24T17:30:51.116Z,5.61
2023-02-24T17:33:21.032Z,5.62
2023-02-24T17:35:49.307Z,5.63
2023-02-24T17:38:21.713Z,5.64
2023-02-24T17:40:50.070Z,5.66
2023-02-24T17:43:19.397Z,5.67
2023-02-24T17:45:47.797Z,5.68
2023-02-24T17:48:18.270Z,5.69
2023-02-24T17:50:47.681Z,5.68
2023-02-24T17:53:16.164Z,5.68
2023-02-24T17:56:01.960Z,5.68
2023-02-24T17:58:31.780Z,5.70
2023-02-24T18:01:02.473Z,5.73
2023-02-24T18:03:32.226Z,5.76
2023-02-24T18:06:02.338Z,5.76
2023-02-24T18:08:33.794Z,5.78
2023-02-24T18:11:02.789Z,5.80
2023-02-24T18:13:32.663Z,5.82
2023-02-24T18:16:01.241Z,5.82
2023-02-24T18:18:30.698Z,5.83
2023-02-24T18:21:02.867Z,5.85
2023-02-24T18:23:32.903Z,5.87
2023-02-24T18:26:04.615Z,5.89
2023-02-24T18:28:35.582Z,5.93
2023-02-24T18:31:19.174Z,5.96
2023-02-24T18:33:48.514Z,5.97
2023-02-24T18:36:16.989Z,5.99
2023-02-24T18:38:46.420Z,6.01
2023-02-24T18:41:18.631Z,6.02
2023-02-24T18:43:51.237Z,6.03
2023-02-24T18:46:20.183Z,6.06
2023-02-24T18:48:50.543Z,6.10
2023-02-24T18:51:21.030Z,6.12
2023-02-24T18:53:52.154Z,6.13
2023-02-24T18:56:23.925Z,6.15
2023-02-24T18:58:58.386Z,6.17
2023-02-24T19:01:29.229Z,6.18
2023-02-24T19:03:57.721Z,6.18
2023-02-24T19:06:27.202Z,6.17
2023-02-24T19:09:12.579Z,6.16
2023-02-24T19:11:41.048Z,6.16
2023-02-24T19:14:11.996Z,6.18
2023-02-24T19:16:40.530Z,6.19
2023-02-24T19:19:13.936Z,6.19
2023-02-24T19:21:45.841Z,6.18
2023-02-24T19:24:17.346Z,6.20
2023-02-24T19:26:48.857Z,6.20
2023-02-24T19:29:22.850Z,6.21
2023-02-24T19:31:54.664Z,6.22
2023-02-24T19:34:24.324Z,6.24
2023-02-24T19:36:53.626Z,6.27
2023-02-24T19:39:22.885Z,6.28
2023-02-24T19:41:53.576Z,6.30
2023-02-24T19:44:25.631Z,6.31
2023-02-24T19:46:54.321Z,6.31
2023-02-24T19:49:22.915Z,6.31
2023-02-24T19:51:57.798Z,6.31
2023-02-24T19:54:26.938Z,6.31
2023-02-24T19:56:57.569Z,6.30
2023-02-24T19:59:26.470Z,6.31
2023-02-24T20:01:56.999Z,6.37
2023-02-24T20:04:25.656Z,6.49
2023-02-24T20:06:57.752Z,6.42
2023-02-24T20:09:27.214Z,6.34
2023-02-24T20:11:59.444Z,6.32
2023-02-24T20:14:28.677Z,6.30
2023-02-24T20:16:57.042Z,6.27
2023-02-24T20:19:27.342Z,6.25
2023-02-24T20:21:55.715Z,6.24
2023-02-24T20:24:24.403Z,6.23
2023-02-24T20:26:53.155Z,6.22
2023-02-24T20:29:22.206Z,6.22
2023-02-24T20:31:51.508Z,6.23
2023-02-24T20:34:20.880Z,6.25
2023-02-24T20:36:56.640Z,6.28
2023-02-24T20:39:25.340Z,6.29
2023-02-24T20:41:54.963Z,6.29
2023-02-24T20:44:24.969Z,6.27
2023-02-24T20:46:53.349Z,6.26
2023-02-24T20:49:21.979Z,6.25
2023-02-24T20:51:50.425Z,6.24
2023-02-24T20:54:18.903Z,6.24
2023-02-24T20:56:53.615Z,6.22
2023-02-24T20:59:23.032Z,6.22
2023-02-24T21:01:52.161Z,6.21
2023-02-24T21:04:27.022Z,6.21
2023-02-24T21:07:16.550Z,6.21
2023-02-24T21:10:21.620Z,6.21
2023-02-24T21:13:22.608Z,6.23
2023-02-24T21:16:06.432Z,6.25
2023-02-24T21:18:36.345Z,6.25
2023-02-24T21:21:08.126Z,6.25
2023-02-24T21:23:46.985Z,6.24
2023-02-24T21:26:36.323Z,6.24
2023-02-24T21:29:19.381Z,6.24
2023-02-24T21:31:56.882Z,6.24
2023-02-24T21:34:30.267Z,6.24
2023-02-24T21:37:06.225Z,6.25
2023-02-24T21:39:39.663Z,6.26
2023-02-24T21:42:13.281Z,6.26
2023-02-24T21:44:44.723Z,6.25
2023-02-24T21:47:15.987Z,6.27
2023-02-24T21:49:50.414Z,6.28
2023-02-24T21:52:31.119Z,6.29
2023-02-24T21:55:01.760Z,6.28
2023-02-24T21:57:42.325Z,6.26
2023-02-24T22:00:30.583Z,6.25
2023-02-24T22:03:15.309Z,6.23
2023-02-24T22:06:02.669Z,6.21
2023-02-24T22:08:43.844Z,6.22
2023-02-24T22:11:16.810Z,6.22
2023-02-24T22:13:50.312Z,6.22
2023-02-24T22:16:26.190Z,6.23
2023-02-24T22:18:57.617Z,6.25
2023-02-24T22:21:33.697Z,6.27
2023-02-24T22:24:18.776Z,6.28
2023-02-24T22:26:55.758Z,6.29
2023-02-24T22:29:44.728Z,6.31
2023-02-24T22:32:47.384Z,6.35
2023-02-24T22:35:15.803Z,6.37
2023-02-24T22:37:46.636Z,6.37
2023-02-24T22:40:15.020Z,6.38
2023-02-24T22:42:49.237Z,6.38
2023-02-24T22:45:17.611Z,6.37
2023-02-24T22:47:46.346Z,6.37
2023-02-24T22:50:16.029Z,6.38
2023-02-24T22:52:44.193Z,6.38
2023-02-24T22:55:13.868Z,6.38
2023-02-24T22:57:42.179Z,6.38
2023-02-24T23:00:11.710Z,6.38
2023-02-24T23:02:41.913Z,6.37
2023-02-24T23:05:13.876Z,6.38
2023-02-24T23:07:45.636Z,6.37
2023-02-24T23:10:14.015Z,6.38
2023-02-24T23:12:42.499Z,6.39
2023-02-24T23:15:11.393Z,6.40
2023-02-24T23:17:41.625Z,6.42
2023-02-24T23:20:13.895Z,6.46
2023-02-24T23:22:43.295Z,6.58
2023-02-24T23:25:12.326Z,6.61
2023-02-24T23:27:41.031Z,6.63
2023-02-24T23:30:11.968Z,6.67
2023-02-24T23:32:41.462Z,6.62
2023-02-24T23:35:12.993Z,6.72
2023-02-24T23:37:41.562Z,6.74
2023-02-24T23:40:11.509Z,6.75
2023-02-24T23:42:40.180Z,6.76
2023-02-24T23:45:09.888Z,6.75
2023-02-24T23:47:41.850Z,6.71
2023-02-24T23:50:11.261Z,6.70
2023-02-24T23:52:40.051Z,6.68
2023-02-24T23:55:14.373Z,6.65
2023-02-24T23:57:43.552Z,6.63
